Alloway, NJ

9:03 AM EST on March 04, 2015 (GMT -0500)
Dover Air Force Base | Change Station
CLOSE
Current Station
Airport
Location: Dover AFB,
Elevation: 30 ft
Nearby Weather Stations
Active Advisory: Winter Storm Warning

Elev 30 ft 39.13 °N, 75.47 °W | Updated 5 minutes ago

Overcast
Overcast
43 °F
Feels Like 39 °F
N
7
Wind Variable Wind from WSW

Today
High -- | Low -- °F
--% Chance of Precip.
Yesterday
High -- | Low -- °F
Precip. -- in
6:30 AM 5:56 PM
Waxing Gibbous, 99% visible
Pressure 29.93 in
Visibility 10.0 miles
Clouds Overcast 6500 ft
Windchill 39 °F
Dew Point 43 °F
Humidity 100%
Rainfall 0.10 in
Snow Depth Not available.
UV 1 out of 12
Pollen .60 out of 12
Air Quality Not available.
Flu Activity Not available.
METAR KDOV 041358Z AUTO 24006KT 10SM OVC065 06/06 A2992 RMK AO2 RAE19 SLP135 P0001 T00610061 $

More Conditions Fewer Conditions

Pressure 29.93 in
Visibility 10.0 miles
Clouds Overcast 6500 ft
Windchill 39 °F
Dew Point 43 °F
Humidity 100%
Rainfall 0.10 in
Snow Depth Not available.
UV 1 out of 12
Pollen .60 out of 12
Air Quality Not available.
Flu Activity Not available.
METAR KDOV 041358Z AUTO 24006KT 10SM OVC065 06/06 A2992 RMK AO2 RAE19 SLP135 P0001 T00610061 $

More Conditions Fewer Conditions

10-Day Weather Forecast

Almanac

Astronomy

Mar. 04, 2015 Rise Set
Actual Time
Civil Twilight
Nautical Twilight
Astronomical Twilight
Moon
Length of Visible Light
Length of Day
Tomorrow will be .
, % of the Moon is Illuminated

Today's Extremes

State Highs State Lows

Community

WunderPhotos

Upload Photos

1,802,456 photos uploaded!

WunderBlogs® & News

Nearby

Air Quality

  Air Quality AQ Index Pollutant
Not available.

Snow Depth

Station Depth Elevation

Earthquake Activity

City Distance Mag. Time & Date
Minimum magnitude displayed is 2.5.

Coastal Water Temperatures

Place Temperature

Nearby Weather Stations

Winter Storm Warning
Statement as of 8:34 AM EST on March 04, 2015

... Winter Storm Warning remains in effect from 11 PM this evening
to 7 PM EST Thursday...

* hazard types... a steady accumulating snow... possibly heavy at
times... from late tonight into Thursday.

* Snow accumulations... 6 to 10 inches.

* Timing... rain will change to snow overnight and the snow will
continue into Thursday.

* Impacts... widespread and substantial impacts on travel are
expected for late tonight and Thursday.

Precautionary/preparedness actions...

This Winter Storm Warning means that significant amounts of snow
are expected. The snow will make travel very hazardous or
impossible.